createdAt,value
2023-03-16T00:01:12.390Z,30.90
2023-03-16T00:03:41.272Z,30.42
2023-03-16T00:06:10.366Z,31.40
2023-03-16T00:08:43.804Z,26.90
2023-03-16T00:11:13.050Z,19.45
2023-03-16T00:13:43.490Z,27.90
2023-03-16T00:16:17.606Z,21.45
2023-03-16T00:18:46.624Z,20.65
2023-03-16T00:21:16.283Z,19.10
2023-03-16T00:23:45.068Z,22.85
2023-03-16T00:26:14.220Z,25.80
2023-03-16T00:28:43.500Z,29.13
2023-03-16T00:31:15.480Z,34.75
2023-03-16T00:33:43.990Z,28.33
2023-03-16T00:36:13.325Z,26.13
2023-03-16T00:38:46.478Z,32.40
2023-03-16T00:41:16.682Z,27.17
2023-03-16T00:43:49.598Z,30.88
2023-03-16T00:46:18.897Z,32.08
2023-03-16T00:48:48.558Z,30.23
2023-03-16T00:51:19.669Z,26.17
2023-03-16T00:53:51.757Z,27.65
2023-03-16T00:56:20.502Z,25.40
2023-03-16T00:58:49.719Z,27.08
2023-03-16T01:01:20.335Z,21.42
2023-03-16T01:03:49.984Z,21.30
2023-03-16T01:06:21.424Z,20.08
2023-03-16T01:08:49.963Z,21.70
2023-03-16T01:11:21.180Z,22.58
2023-03-16T01:13:54.943Z,18.48
2023-03-16T01:16:26.663Z,21.63
2023-03-16T01:18:56.104Z,19.10
2023-03-16T01:21:24.897Z,20.25
2023-03-16T01:23:54.639Z,24.80
2023-03-16T01:26:25.997Z,20.75
2023-03-16T01:28:55.760Z,22.30
2023-03-16T01:31:27.585Z,20.02
2023-03-16T01:33:56.636Z,17.58
2023-03-16T01:36:28.557Z,19.67
2023-03-16T01:39:07.498Z,19.27
2023-03-16T01:41:40.417Z,18.95
2023-03-16T01:44:19.197Z,14.55
2023-03-16T01:46:48.388Z,19.20
2023-03-16T01:49:29.584Z,19.67
2023-03-16T01:52:07.827Z,21.70
2023-03-16T01:54:43.266Z,24.20
2023-03-16T01:57:23.641Z,21.25
2023-03-16T02:00:19.760Z,22.65
2023-03-16T02:03:20.840Z,22.20
2023-03-16T02:06:03.895Z,26.30
2023-03-16T02:08:35.975Z,25.60
2023-03-16T02:11:06.465Z,23.63
2023-03-16T02:13:44.269Z,37.38
2023-03-16T02:16:20.053Z,30.92
2023-03-16T02:18:52.499Z,64.93
2023-03-16T02:21:26.279Z,21.85
2023-03-16T02:23:55.756Z,25.00
2023-03-16T02:26:48.806Z,28.23
2023-03-16T02:30:03.459Z,24.65
2023-03-16T02:32:41.874Z,19.70
2023-03-16T02:35:11.623Z,19.90
2023-03-16T02:37:42.598Z,28.05
2023-03-16T02:40:18.114Z,24.13
2023-03-16T02:43:15.697Z,20.17
2023-03-16T02:45:58.356Z,15.82
2023-03-16T02:48:39.023Z,18.73
2023-03-16T02:51:08.217Z,19.23
2023-03-16T02:53:37.022Z,26.00
2023-03-16T02:56:06.247Z,21.25
2023-03-16T02:58:37.436Z,31.27
2023-03-16T03:01:12.217Z,48.42
2023-03-16T03:03:41.135Z,52.28
2023-03-16T03:06:09.895Z,33.00
2023-03-16T03:08:39.356Z,176.27
2023-03-16T03:11:08.116Z,34.35
2023-03-16T03:13:40.018Z,55.03
2023-03-16T03:16:15.383Z,20.23
2023-03-16T03:18:44.459Z,17.88
2023-03-16T03:21:16.305Z,43.15
2023-03-16T03:23:47.362Z,23.77
2023-03-16T03:26:16.535Z,30.23
2023-03-16T03:28:47.001Z,21.00
2023-03-16T03:31:18.339Z,16.23
2023-03-16T03:33:47.416Z,31.13
2023-03-16T03:36:16.399Z,28.85
2023-03-16T03:38:46.537Z,17.63
2023-03-16T03:41:15.893Z,33.97
2023-03-16T03:43:46.169Z,30.80
2023-03-16T03:46:18.443Z,31.98
2023-03-16T03:48:47.421Z,20.88
2023-03-16T03:51:16.479Z,33.35
2023-03-16T03:53:58.237Z,26.58
2023-03-16T03:56:45.520Z,24.50
2023-03-16T03:59:17.545Z,32.38
2023-03-16T04:02:07.681Z,15.75
2023-03-16T04:04:45.544Z,19.98
2023-03-16T04:07:15.727Z,20.33
2023-03-16T04:09:46.040Z,30.55
2023-03-16T04:12:27.244Z,17.55
2023-03-16T04:14:56.204Z,19.08
2023-03-16T04:17:26.637Z,26.50
2023-03-16T04:19:59.087Z,11.30
2023-03-16T04:22:27.705Z,31.58
2023-03-16T04:24:57.222Z,32.63
2023-03-16T04:27:28.461Z,26.80
2023-03-16T04:30:00.381Z,22.13
2023-03-16T04:32:30.090Z,24.85
2023-03-16T04:34:59.353Z,14.18
2023-03-16T04:37:40.109Z,16.65
2023-03-16T04:40:20.189Z,13.85
2023-03-16T04:42:55.222Z,14.35
2023-03-16T04:45:25.206Z,12.80
2023-03-16T04:47:57.245Z,10.73
2023-03-16T04:50:26.458Z,9.77
2023-03-16T04:52:56.427Z,10.20
2023-03-16T04:55:26.183Z,12.18
2023-03-16T04:57:55.321Z,7.57
2023-03-16T05:00:24.869Z,9.65
2023-03-16T05:03:11.440Z,11.18
2023-03-16T05:05:41.200Z,16.15
2023-03-16T05:08:11.572Z,8.00
2023-03-16T05:10:43.423Z,8.43
2023-03-16T05:13:12.545Z,6.70
2023-03-16T05:15:41.297Z,8.55
2023-03-16T05:18:24.162Z,9.23
2023-03-16T05:20:55.207Z,5.97
2023-03-16T05:23:25.601Z,6.80
2023-03-16T05:26:03.481Z,16.42
2023-03-16T05:28:35.004Z,7.63
2023-03-16T05:31:07.666Z,8.32
2023-03-16T05:33:41.113Z,8.30
2023-03-16T05:36:13.960Z,9.98
2023-03-16T05:38:48.407Z,6.47
2023-03-16T05:41:43.506Z,16.38
2023-03-16T05:44:24.244Z,13.45
2023-03-16T05:47:03.640Z,28.15
2023-03-16T05:49:34.575Z,5.70
2023-03-16T05:52:07.145Z,15.73
2023-03-16T05:54:37.165Z,16.55
2023-03-16T05:57:07.825Z,22.48
2023-03-16T05:59:37.862Z,20.70
2023-03-16T06:02:07.027Z,8.02
2023-03-16T06:04:38.207Z,17.95
2023-03-16T06:07:07.265Z,31.77
2023-03-16T06:09:36.644Z,10.90
2023-03-16T06:12:11.844Z,5.38
2023-03-16T06:14:41.889Z,11.18
2023-03-16T06:17:11.561Z,6.03
2023-03-16T06:19:42.430Z,8.70
2023-03-16T06:22:11.734Z,7.88
2023-03-16T06:24:41.126Z,6.57
2023-03-16T06:27:10.005Z,5.32
2023-03-16T06:29:52.247Z,7.07
2023-03-16T06:32:24.150Z,8.32
2023-03-16T06:34:53.318Z,5.90
2023-03-16T06:37:22.526Z,6.10
2023-03-16T06:39:51.389Z,8.90
2023-03-16T06:42:20.272Z,12.25
2023-03-16T06:44:49.280Z,8.00
2023-03-16T06:47:18.490Z,6.35
2023-03-16T06:49:47.867Z,7.28
2023-03-16T06:52:21.766Z,6.13
2023-03-16T06:54:51.707Z,16.92
2023-03-16T06:57:22.095Z,19.30
2023-03-16T06:59:51.829Z,9.57
2023-03-16T07:02:20.829Z,5.50
2023-03-16T07:04:49.896Z,6.57
2023-03-16T07:07:19.985Z,4.63
2023-03-16T07:09:48.853Z,5.68
2023-03-16T07:12:17.625Z,6.78
2023-03-16T07:14:49.731Z,5.38
2023-03-16T07:17:22.885Z,6.20
2023-03-16T07:19:52.085Z,6.68
2023-03-16T07:22:20.983Z,5.97
2023-03-16T07:24:56.745Z,5.35
2023-03-16T07:27:26.902Z,5.13
2023-03-16T07:29:55.844Z,6.13
2023-03-16T07:32:24.809Z,5.18
2023-03-16T07:34:58.149Z,5.00
2023-03-16T07:37:31.967Z,4.95
2023-03-16T07:40:02.656Z,6.90
2023-03-16T07:42:31.454Z,7.20
2023-03-16T07:45:18.586Z,5.60
2023-03-16T07:47:48.327Z,5.18
2023-03-16T07:50:37.269Z,5.07
2023-03-16T07:53:06.175Z,6.45
2023-03-16T07:55:39.850Z,7.30
2023-03-16T07:58:11.379Z,7.47
2023-03-16T08:00:43.364Z,6.25
2023-03-16T08:03:12.543Z,4.90
2023-03-16T08:05:41.546Z,5.05
2023-03-16T08:08:19.502Z,5.53
2023-03-16T08:10:55.011Z,6.57
2023-03-16T08:13:31.028Z,6.38
2023-03-16T08:16:02.739Z,7.50
2023-03-16T08:18:37.680Z,5.38
2023-03-16T08:21:07.563Z,6.72
2023-03-16T08:23:36.865Z,5.40
2023-03-16T08:26:09.730Z,7.85
2023-03-16T08:28:39.910Z,5.68
2023-03-16T08:31:13.030Z,5.57
2023-03-16T08:33:48.560Z,4.10
2023-03-16T08:36:22.968Z,5.80
2023-03-16T08:39:06.589Z,4.38
2023-03-16T08:41:46.684Z,5.43
2023-03-16T08:44:26.769Z,6.90
2023-03-16T08:46:56.118Z,7.13
2023-03-16T08:49:25.810Z,6.85
2023-03-16T08:52:03.048Z,6.50
2023-03-16T08:54:33.071Z,6.82
2023-03-16T08:57:02.139Z,6.97
2023-03-16T08:59:34.024Z,7.63
2023-03-16T09:02:05.130Z,7.57
2023-03-16T09:04:34.071Z,6.40
2023-03-16T09:07:09.345Z,9.15
2023-03-16T09:09:39.023Z,6.65
2023-03-16T09:12:09.488Z,8.02
2023-03-16T09:14:39.314Z,8.27
2023-03-16T09:17:08.662Z,8.68
2023-03-16T09:19:56.274Z,10.30
2023-03-16T09:22:26.594Z,7.53
2023-03-16T09:24:55.490Z,9.45
2023-03-16T09:27:24.579Z,8.88
2023-03-16T09:29:56.637Z,10.65
2023-03-16T09:32:25.581Z,9.80
2023-03-16T09:34:55.205Z,10.35
2023-03-16T09:37:24.282Z,10.52
2023-03-16T09:39:57.933Z,6.20
2023-03-16T09:42:38.866Z,6.63
2023-03-16T09:45:16.079Z,5.97
2023-03-16T09:47:49.245Z,7.68
2023-03-16T09:50:30.279Z,6.80
2023-03-16T09:53:32.238Z,5.97
2023-03-16T09:56:16.960Z,6.30
2023-03-16T09:58:46.536Z,6.32
2023-03-16T10:01:45.534Z,7.00
2023-03-16T10:04:43.794Z,7.35
2023-03-16T10:07:53.013Z,5.45
2023-03-16T10:10:39.150Z,5.35
2023-03-16T10:13:24.698Z,7.55
2023-03-16T10:15:57.434Z,7.60
2023-03-16T10:18:33.291Z,5.95
2023-03-16T10:21:03.644Z,7.25
2023-03-16T10:23:36.114Z,7.95
2023-03-16T10:26:15.433Z,6.78
2023-03-16T10:28:46.342Z,5.80
2023-03-16T10:31:17.728Z,6.50
2023-03-16T10:33:47.090Z,8.05
2023-03-16T10:36:26.822Z,6.22
2023-03-16T10:39:00.491Z,7.68
2023-03-16T10:41:34.696Z,9.80
2023-03-16T10:44:27.656Z,8.82
2023-03-16T10:47:08.932Z,7.95
2023-03-16T10:49:42.819Z,6.75
2023-03-16T10:52:27.002Z,8.50
2023-03-16T10:55:02.053Z,7.28
2023-03-16T10:57:34.735Z,6.80
2023-03-16T11:00:13.807Z,8.13
2023-03-16T11:02:43.125Z,10.52
2023-03-16T11:05:31.898Z,9.95
2023-03-16T11:08:14.497Z,8.00
2023-03-16T11:10:56.340Z,7.00
2023-03-16T11:13:38.360Z,9.15
2023-03-16T11:16:46.139Z,7.53
2023-03-16T11:19:58.481Z,9.93
2023-03-16T11:22:28.461Z,9.70
2023-03-16T11:24:57.017Z,8.95
2023-03-16T11:28:07.346Z,10.60
2023-03-16T11:31:04.742Z,7.70
2023-03-16T11:33:35.718Z,7.63
2023-03-16T11:36:28.404Z,6.82
2023-03-16T11:39:41.299Z,7.95
2023-03-16T11:42:16.518Z,7.78
2023-03-16T11:45:02.224Z,9.75
2023-03-16T11:47:37.427Z,11.38
2023-03-16T11:50:20.764Z,8.68
2023-03-16T11:53:01.484Z,7.72
2023-03-16T11:55:37.850Z,11.70
2023-03-16T11:58:58.836Z,8.43
2023-03-16T12:01:58.149Z,9.07
2023-03-16T12:04:47.357Z,8.57
2023-03-16T12:07:26.915Z,8.70
2023-03-16T12:10:24.818Z,7.35
2023-03-16T12:13:11.892Z,7.93
2023-03-16T12:15:48.941Z,7.03
2023-03-16T12:18:40.174Z,8.30
2023-03-16T12:21:19.412Z,7.60
2023-03-16T12:23:56.095Z,8.07
2023-03-16T12:26:30.880Z,7.80
2023-03-16T12:32:15.989Z,10.40
2023-03-16T12:35:08.621Z,8.38
2023-03-16T12:37:46.316Z,11.80
2023-03-16T12:40:45.365Z,11.35
2023-03-16T12:43:40.112Z,10.50
2023-03-16T12:46:15.230Z,10.97
2023-03-16T12:48:51.297Z,9.60
2023-03-16T12:51:20.042Z,11.27
2023-03-16T12:53:52.472Z,10.60
2023-03-16T12:56:30.919Z,9.48
2023-03-16T12:59:06.924Z,8.40
2023-03-16T13:01:43.314Z,8.77
2023-03-16T13:04:24.292Z,8.73
2023-03-16T13:07:19.935Z,9.35
2023-03-16T13:12:33.343Z,10.38
2023-03-16T13:15:02.860Z,10.32
2023-03-16T13:17:33.949Z,9.30
2023-03-16T13:20:08.944Z,9.40
2023-03-16T13:22:48.559Z,8.88
2023-03-16T13:25:23.647Z,12.13
2023-03-16T13:27:56.816Z,8.52
2023-03-16T13:30:47.922Z,10.27
2023-03-16T13:33:29.563Z,10.30
2023-03-16T13:36:00.838Z,7.38
2023-03-16T13:38:30.282Z,8.30
2023-03-16T13:41:04.710Z,28.55
2023-03-16T13:43:36.542Z,9.18
2023-03-16T13:46:19.599Z,9.32
2023-03-16T13:48:49.789Z,9.23
2023-03-16T13:51:21.805Z,8.88
2023-03-16T13:53:51.914Z,8.65
2023-03-16T13:56:27.700Z,18.05
2023-03-16T13:58:59.484Z,11.00
2023-03-16T14:01:32.951Z,8.80
2023-03-16T14:04:09.401Z,15.80
2023-03-16T14:06:39.361Z,17.75
2023-03-16T14:09:18.682Z,9.70
2023-03-16T14:11:49.403Z,17.52
2023-03-16T14:14:26.941Z,11.52
2023-03-16T14:17:03.695Z,9.32
2023-03-16T14:19:43.037Z,14.43
2023-03-16T14:22:19.010Z,15.45
2023-03-16T14:24:55.532Z,11.30
2023-03-16T14:27:44.996Z,9.75
2023-03-16T14:30:26.846Z,8.98
2023-03-16T14:33:03.068Z,8.63
2023-03-16T14:35:43.550Z,8.75
2023-03-16T14:38:36.898Z,16.70
2023-03-16T14:41:10.403Z,19.83
2023-03-16T14:43:48.459Z,12.73
2023-03-16T14:46:28.620Z,17.67
2023-03-16T14:49:17.776Z,8.85
2023-03-16T14:51:49.396Z,11.15
2023-03-16T14:54:22.568Z,15.95
2023-03-16T14:56:54.230Z,35.42
2023-03-16T14:59:23.196Z,10.80
2023-03-16T15:01:55.428Z,13.95
2023-03-16T15:04:36.190Z,10.32
2023-03-16T15:07:35.316Z,11.13
2023-03-16T15:10:11.355Z,9.30
2023-03-16T15:12:41.720Z,9.43
2023-03-16T15:15:19.713Z,10.40
2023-03-16T15:17:51.203Z,9.77
2023-03-16T15:20:26.234Z,11.07
2023-03-16T15:22:55.233Z,10.93
2023-03-16T15:25:42.652Z,21.20
2023-03-16T15:28:19.472Z,10.75
2023-03-16T15:31:04.768Z,12.25
2023-03-16T15:33:35.490Z,11.38
2023-03-16T15:36:15.496Z,11.10
2023-03-16T15:38:49.590Z,11.45
2023-03-16T15:41:22.050Z,12.15
2023-03-16T15:43:53.170Z,11.52
2023-03-16T15:46:25.152Z,11.50
2023-03-16T15:48:54.459Z,11.85
2023-03-16T15:51:31.027Z,13.32
2023-03-16T15:54:06.061Z,14.60
2023-03-16T15:56:50.971Z,10.20
2023-03-16T15:59:22.860Z,18.33
2023-03-16T16:01:53.165Z,19.75
2023-03-16T16:04:25.822Z,12.27
2023-03-16T16:06:56.032Z,10.82
2023-03-16T16:09:26.269Z,15.63
2023-03-16T16:11:54.956Z,14.20
2023-03-16T16:14:27.349Z,9.63
2023-03-16T16:16:56.373Z,10.27
2023-03-16T16:19:29.198Z,12.68
2023-03-16T16:21:57.912Z,22.15
2023-03-16T16:24:27.212Z,10.00
2023-03-16T16:26:56.284Z,10.40
2023-03-16T16:29:30.704Z,13.20
2023-03-16T16:31:59.991Z,9.85
2023-03-16T16:34:29.325Z,11.90
2023-03-16T16:36:58.858Z,12.27
2023-03-16T16:39:28.072Z,13.43
2023-03-16T16:41:57.500Z,11.57
2023-03-16T16:44:34.426Z,13.32
2023-03-16T16:47:04.713Z,12.15
2023-03-16T16:49:35.489Z,15.10
2023-03-16T16:52:04.787Z,14.75
2023-03-16T16:54:33.610Z,14.20
2023-03-16T16:57:09.410Z,11.85
2023-03-16T16:59:39.048Z,11.40
2023-03-16T17:02:30.502Z,21.00
2023-03-16T17:04:59.365Z,10.27
2023-03-16T17:07:28.613Z,11.25
2023-03-16T17:09:57.244Z,10.32
2023-03-16T17:12:26.546Z,13.90
2023-03-16T17:14:58.007Z,16.95
2023-03-16T17:17:29.898Z,15.90
2023-03-16T17:19:59.084Z,17.27
2023-03-16T17:22:29.146Z,22.52
2023-03-16T17:24:59.282Z,31.17
2023-03-16T17:27:32.923Z,81.50
2023-03-16T17:30:02.623Z,50.38
2023-03-16T17:32:31.718Z,56.17
2023-03-16T17:35:00.594Z,23.00
2023-03-16T17:37:29.493Z,19.17
2023-03-16T17:39:58.696Z,28.70
2023-03-16T17:42:27.812Z,32.65
2023-03-16T17:44:57.235Z,44.72
2023-03-16T17:47:28.374Z,32.67
2023-03-16T17:49:57.744Z,27.08
2023-03-16T17:52:30.360Z,39.80
2023-03-16T17:54:59.520Z,40.30
2023-03-16T17:57:32.719Z,52.50
2023-03-16T18:00:03.302Z,38.20
2023-03-16T18:02:55.917Z,55.08
2023-03-16T18:05:31.066Z,74.60
2023-03-16T18:08:07.896Z,70.10
2023-03-16T18:10:38.438Z,54.22
2023-03-16T18:13:15.137Z,54.72
2023-03-16T18:15:45.967Z,48.95
2023-03-16T18:18:21.306Z,43.75
2023-03-16T18:20:51.602Z,51.17
2023-03-16T18:23:23.264Z,37.03
2023-03-16T18:25:55.639Z,42.58
2023-03-16T18:28:24.411Z,46.63
2023-03-16T18:30:54.385Z,42.10
2023-03-16T18:33:35.285Z,38.20
2023-03-16T18:36:14.046Z,44.13
2023-03-16T18:38:46.414Z,47.80
2023-03-16T18:41:26.215Z,44.05
2023-03-16T18:43:59.279Z,32.78
2023-03-16T18:46:32.560Z,21.08
2023-03-16T18:49:05.719Z,37.63
2023-03-16T18:51:34.514Z,36.30
2023-03-16T18:54:03.357Z,45.47
2023-03-16T18:56:32.493Z,35.10
2023-03-16T18:59:01.254Z,33.45
2023-03-16T19:01:32.505Z,25.25
2023-03-16T19:04:03.035Z,52.25
2023-03-16T19:06:36.088Z,42.55
2023-03-16T19:09:14.126Z,46.17
2023-03-16T19:11:44.988Z,26.35
2023-03-16T19:14:19.599Z,46.25
2023-03-16T19:19:17.707Z,18.85
2023-03-16T19:21:46.589Z,23.38
2023-03-16T19:24:49.866Z,29.50
2023-03-16T19:27:24.866Z,14.35
2023-03-16T19:29:55.785Z,40.25
2023-03-16T19:32:24.741Z,25.13
2023-03-16T19:34:53.873Z,31.67
2023-03-16T19:37:24.624Z,27.15
2023-03-16T19:39:53.572Z,21.30
2023-03-16T19:42:29.217Z,20.40
2023-03-16T19:44:58.074Z,20.90
2023-03-16T19:47:32.872Z,15.35
2023-03-16T19:50:02.614Z,27.70
2023-03-16T19:52:33.351Z,18.52
2023-03-16T19:55:05.031Z,23.77
2023-03-16T19:57:34.650Z,16.17
2023-03-16T20:00:04.452Z,16.30
2023-03-16T20:02:37.852Z,17.88
2023-03-16T20:05:07.653Z,30.05
2023-03-16T20:07:38.875Z,24.60
2023-03-16T20:10:08.525Z,14.98
2023-03-16T20:12:39.456Z,22.95
2023-03-16T20:15:15.494Z,20.98
2023-03-16T20:17:45.129Z,21.27
2023-03-16T20:20:35.056Z,18.70
2023-03-16T20:23:04.095Z,16.02
2023-03-16T20:25:35.471Z,16.88
2023-03-16T20:28:04.649Z,16.70
2023-03-16T20:30:36.530Z,17.10
2023-03-16T20:33:05.681Z,17.95
2023-03-16T20:35:35.006Z,17.40
2023-03-16T20:38:03.668Z,19.60
2023-03-16T20:40:32.588Z,25.73
2023-03-16T20:43:01.768Z,22.20
2023-03-16T20:45:31.176Z,23.58
2023-03-16T20:47:59.988Z,29.63
2023-03-16T20:50:31.290Z,30.15
2023-03-16T20:53:00.045Z,34.00
2023-03-16T20:55:29.811Z,44.17
2023-03-16T20:57:59.268Z,39.20
2023-03-16T21:00:36.015Z,38.90
2023-03-16T21:03:19.769Z,51.58
2023-03-16T21:05:49.320Z,44.22
2023-03-16T21:08:18.868Z,43.97
2023-03-16T21:10:50.167Z,41.17
2023-03-16T21:13:34.535Z,42.13
2023-03-16T21:16:05.121Z,34.72
2023-03-16T21:18:33.858Z,38.03
2023-03-16T21:21:03.809Z,40.13
2023-03-16T21:23:32.593Z,35.97
2023-03-16T21:26:04.387Z,43.00
2023-03-16T21:28:35.334Z,34.13
2023-03-16T21:31:06.172Z,30.58
2023-03-16T21:33:39.940Z,29.73
2023-03-16T21:36:15.965Z,35.65
2023-03-16T21:38:45.748Z,31.38
2023-03-16T21:41:15.571Z,31.63
2023-03-16T21:43:45.636Z,33.95
2023-03-16T21:46:17.178Z,37.38
2023-03-16T21:48:50.250Z,54.83
2023-03-16T21:51:30.993Z,34.53
2023-03-16T21:53:59.930Z,33.33
2023-03-16T21:56:29.647Z,28.70
2023-03-16T21:58:58.511Z,30.85
2023-03-16T22:01:32.933Z,35.35
2023-03-16T22:04:09.510Z,35.45
2023-03-16T22:06:38.985Z,37.35
2023-03-16T22:09:08.210Z,45.72
2023-03-16T22:11:36.972Z,48.65
2023-03-16T22:14:05.825Z,48.80
2023-03-16T22:16:37.244Z,37.28
2023-03-16T22:19:07.171Z,33.50
2023-03-16T22:21:41.514Z,37.58
2023-03-16T22:24:29.077Z,34.03
2023-03-16T22:26:58.844Z,29.98
2023-03-16T22:29:34.163Z,54.70
2023-03-16T22:32:08.153Z,31.80
2023-03-16T22:34:56.668Z,29.98
2023-03-16T22:37:27.972Z,30.38
2023-03-16T22:39:59.287Z,28.92
2023-03-16T22:42:39.174Z,23.20
2023-03-16T22:45:22.230Z,29.98
2023-03-16T22:47:51.098Z,34.15
2023-03-16T22:50:22.688Z,36.88
2023-03-16T22:52:56.689Z,32.50
2023-03-16T22:55:33.495Z,28.58
2023-03-16T22:58:35.969Z,32.97
2023-03-16T23:01:28.862Z,53.38
2023-03-16T23:03:57.630Z,35.55
2023-03-16T23:06:30.870Z,30.27
2023-03-16T23:09:00.012Z,33.33
2023-03-16T23:11:37.306Z,32.20
2023-03-16T23:14:15.717Z,34.65
2023-03-16T23:16:45.601Z,29.05
2023-03-16T23:19:32.657Z,30.00
2023-03-16T23:22:04.152Z,36.85
2023-03-16T23:24:34.516Z,31.77
2023-03-16T23:27:15.558Z,39.88
2023-03-16T23:29:44.863Z,29.88
2023-03-16T23:32:14.114Z,29.58
2023-03-16T23:34:42.860Z,83.65
2023-03-16T23:37:12.111Z,41.35
2023-03-16T23:39:40.812Z,38.30
2023-03-16T23:42:10.074Z,41.08
2023-03-16T23:44:38.815Z,33.15
2023-03-16T23:47:07.879Z,29.02
2023-03-16T23:49:43.372Z,34.13
2023-03-16T23:52:14.192Z,33.17
2023-03-16T23:54:44.111Z,34.45
2023-03-16T23:57:12.940Z,32.95
2023-03-16T23:59:42.020Z,28.88
